Fairbanks, Alaska
Current Conditions -  °F | °C
As of 6:55 AM on Thursday 23 Oct 2014 (Local Time) from PAFB Reporting Station
Light Snow Light Snow  
Wind Chill: 16°   Ceiling: 7000
Heat Index: 16°   Visibility: 10mi
Dew Point: 10°   Wind: 2mph
Humidity: 79%   Direction: 270°W
Pressure: 29.81"   Gusts: NA
Location:  64.85°N, 147.72°W
Report Text: PAFB 231455Z 27002KT 10SM -SN SCT024 BKN070 M09/M12 A2981 RMK SLP104 53013
Loading
Personal Weather Stations






























Interactive Weather Map
Tropical Storm Tracking
New forecast layout! Learn more

10-Day Weather Forecast

Advertisements
Track Severe Weather on mobile